Time;durP1;ratioP1;P1;durP2;ratioP2;P2;SDS_P1;SDS_P2;PMS_P1;PMS_P2;Temp;Humidity;BMP_temperature;BMP_pressure;BME280_temperature;BME280_humidity;BME280_pressure;Samples;Min_cycle;Max_cycle;Signal;HPM_P1;HPM_P2
2022/03/20 00:01:10;;;;;;;2.13;1.48;;;17.80;46.20;;;;;;4928610;28;98600;-69
2022/03/20 00:03:36;;;;;;;2.65;1.60;;;17.80;46.20;;;;;;4927521;28;98697;-68
2022/03/20 00:06:03;;;;;;;2.55;1.60;;;17.80;46.10;;;;;;4928686;28;99688;-68
2022/03/20 00:08:30;;;;;;;2.42;1.60;;;17.80;46.20;;;;;;4928656;28;100469;-68
2022/03/20 00:10:59;;;;;;;2.08;1.40;;;17.80;46.10;;;;;;4929119;28;98919;-68
2022/03/20 00:13:26;;;;;;;2.58;1.50;;;17.80;46.20;;;;;;4930515;28;98505;-68
2022/03/20 00:15:53;;;;;;;4.05;1.60;;;17.80;46.20;;;;;;4931569;28;101820;-68
2022/03/20 00:18:21;;;;;;;2.40;1.75;;;17.80;46.10;;;;;;4933856;28;99573;-68
2022/03/20 00:20:51;;;;;;;2.47;1.65;;;17.80;46.10;;;;;;4929907;28;98706;-67
2022/03/20 00:23:19;;;;;;;3.13;1.63;;;17.70;46.00;;;;;;4929334;28;99032;-67
2022/03/20 00:25:46;;;;;;;2.85;1.70;;;17.70;46.20;;;;;;4927685;28;100151;-68
2022/03/20 00:28:15;;;;;;;2.80;1.40;;;17.70;46.20;;;;;;4927270;28;99505;-67
2022/03/20 00:30:41;;;;;;;1.75;1.58;;;17.70;46.10;;;;;;4927743;28;98870;-67
2022/03/20 00:33:08;;;;;;;2.92;1.80;;;17.70;46.10;;;;;;4928545;28;98307;-67
2022/03/20 00:35:34;;;;;;;2.03;1.50;;;17.70;46.10;;;;;;4927818;28;100401;-68
2022/03/20 00:38:00;;;;;;;2.65;1.60;;;17.70;46.10;;;;;;4926170;28;99085;-68
2022/03/20 00:40:26;;;;;;;2.53;1.77;;;17.70;46.20;;;;;;4926973;28;99796;-68
2022/03/20 00:42:52;;;;;;;2.60;1.60;;;17.70;46.10;;;;;;4928121;28;98930;-67
2022/03/20 00:45:18;;;;;;;3.17;1.70;;;17.70;46.10;;;;;;4926520;28;100336;-68
2022/03/20 00:47:43;;;;;;;2.67;1.48;;;17.70;46.10;;;;;;4927086;28;99023;-68
2022/03/20 00:50:09;;;;;;;3.10;1.60;;;17.70;46.10;;;;;;4928554;28;98908;-68
2022/03/20 00:52:35;;;;;;;3.03;1.98;;;17.70;46.20;;;;;;4928166;28;99107;-67
2022/03/20 00:55:02;;;;;;;2.65;1.48;;;17.70;46.10;;;;;;4927792;28;100044;-69
2022/03/20 00:57:28;;;;;;;1.90;1.60;;;17.70;46.10;;;;;;4928607;28;98918;-67
2022/03/20 00:59:53;;;;;;;3.65;1.83;;;17.70;46.10;;;;;;4928867;28;98886;-68
2022/03/20 01:02:19;;;;;;;1.95;1.65;;;17.70;46.10;;;;;;4929222;28;98482;-69
2022/03/20 01:04:45;;;;;;;2.55;1.60;;;17.60;46.10;;;;;;4927478;28;100184;-67
2022/03/20 01:07:11;;;;;;;2.83;1.60;;;17.60;46.00;;;;;;4928376;28;99636;-67
2022/03/20 01:09:37;;;;;;;3.75;1.77;;;17.60;46.00;;;;;;4927608;28;99282;-67
2022/03/20 01:12:04;;;;;;;3.00;1.50;;;17.60;46.00;;;;;;4926975;28;98647;-67
2022/03/20 01:14:30;;;;;;;2.75;1.60;;;17.60;46.10;;;;;;4926362;28;100692;-66
2022/03/20 01:16:56;;;;;;;2.60;1.73;;;17.60;46.10;;;;;;4926541;28;100409;-67
2022/03/20 01:19:23;;;;;;;3.83;1.80;;;17.60;46.00;;;;;;4927113;28;98575;-67
2022/03/20 01:21:49;;;;;;;2.72;1.80;;;17.60;46.10;;;;;;4927373;28;97857;-67
2022/03/20 01:24:15;;;;;;;3.45;1.75;;;17.60;46.00;;;;;;4926549;28;99014;-67
2022/03/20 01:26:40;;;;;;;2.95;1.80;;;17.60;47.10;;;;;;4929830;28;99063;-67
2022/03/20 01:29:06;;;;;;;3.63;1.88;;;17.60;46.00;;;;;;4930465;28;99347;-67
2022/03/20 01:31:36;;;;;;;2.70;1.70;;;17.50;46.00;;;;;;4930376;28;98804;-67
2022/03/20 01:34:03;;;;;;;3.05;1.80;;;17.50;46.00;;;;;;4930200;28;101489;-67
2022/03/20 01:36:29;;;;;;;3.25;1.90;;;17.50;46.00;;;;;;4929905;28;99946;-67
2022/03/20 01:38:55;;;;;;;2.97;1.60;;;17.50;46.00;;;;;;4931449;28;99065;-66
2022/03/20 01:41:22;;;;;;;2.95;1.48;;;17.50;45.90;;;;;;4912694;28;99183;-67
2022/03/20 01:43:56;;;;;;;3.22;1.80;;;17.50;45.90;;;;;;4929037;28;100541;-67
2022/03/20 01:46:22;;;;;;;1.85;1.73;;;17.50;46.00;;;;;;4930432;28;100172;-67
2022/03/20 01:48:49;;;;;;;2.78;1.65;;;17.50;46.00;;;;;;4929947;28;99237;-67
2022/03/20 01:51:15;;;;;;;3.45;1.85;;;17.50;45.90;;;;;;4930545;28;99019;-67
2022/03/20 01:53:41;;;;;;;2.63;1.80;;;17.50;46.00;;;;;;4930734;28;101036;-67
2022/03/20 01:56:08;;;;;;;2.47;1.58;;;17.50;45.90;;;;;;4931819;28;100533;-67
2022/03/20 01:58:34;;;;;;;2.88;1.65;;;17.50;45.90;;;;;;4934213;28;98665;-67
2022/03/20 02:01:03;;;;;;;1.65;1.50;;;17.50;46.00;;;;;;4931655;28;99000;-67
2022/03/20 02:03:29;;;;;;;3.42;1.98;;;17.50;46.00;;;;;;4931832;28;99263;-68
2022/03/20 02:05:56;;;;;;;4.25;1.77;;;17.50;46.00;;;;;;4931486;28;100175;-67
2022/03/20 02:08:26;;;;;;;3.15;1.92;;;17.50;45.90;;;;;;4930436;28;99047;-67
2022/03/20 02:10:55;;;;;;;3.72;1.65;;;17.40;45.90;;;;;;4931050;28;98143;-67
2022/03/20 02:13:22;;;;;;;2.30;1.77;;;17.40;45.90;;;;;;4930169;28;100379;-67
2022/03/20 02:15:49;;;;;;;2.55;1.55;;;17.40;45.90;;;;;;4930466;28;99841;-68
2022/03/20 02:18:15;;;;;;;3.42;2.08;;;17.40;45.90;;;;;;4930077;28;99751;-67
2022/03/20 02:20:47;;;;;;;2.55;1.60;;;17.40;45.90;;;;;;4928789;28;98957;-67
2022/03/20 02:23:14;;;;;;;3.65;2.00;;;17.40;45.90;;;;;;4929762;28;100341;-67
2022/03/20 02:25:51;;;;;;;3.17;2.00;;;17.40;45.90;;;;;;4929464;28;99069;-67
2022/03/20 02:28:18;;;;;;;3.35;2.00;;;17.40;45.80;;;;;;4929686;28;100116;-67
2022/03/20 02:30:45;;;;;;;2.95;2.08;;;17.40;45.90;;;;;;4929680;28;98873;-67
2022/03/20 02:33:10;;;;;;;2.80;2.00;;;17.40;45.90;;;;;;4927549;28;100992;-67
2022/03/20 02:35:37;;;;;;;3.33;1.70;;;17.40;45.90;;;;;;4930412;28;99335;-67
2022/03/20 02:38:03;;;;;;;2.42;1.90;;;17.40;45.90;;;;;;4928414;28;99909;-67
2022/03/20 02:40:28;;;;;;;3.30;1.92;;;17.40;45.80;;;;;;4912420;28;99108;-67
2022/03/20 02:42:54;;;;;;;3.10;2.20;;;17.40;45.90;;;;;;4928663;28;100359;-68
2022/03/20 02:45:23;;;;;;;3.40;1.92;;;17.40;45.90;;;;;;4929978;28;100755;-67
2022/03/20 02:47:51;;;;;;;2.53;2.05;;;17.40;45.90;;;;;;4930140;28;98614;-67
2022/03/20 02:50:25;;;;;;;3.85;2.20;;;17.40;45.90;;;;;;4929621;28;99035;-67
2022/03/20 02:52:53;;;;;;;3.45;2.20;;;17.30;45.90;;;;;;4929881;28;100548;-67
2022/03/20 02:55:21;;;;;;;3.30;2.13;;;17.30;45.90;;;;;;4929537;28;99243;-67
2022/03/20 02:57:47;;;;;;;2.95;2.25;;;17.30;45.90;;;;;;4930037;28;98636;-67
2022/03/20 03:00:17;;;;;;;3.63;2.33;;;17.30;45.80;;;;;;4930644;28;98256;-67
2022/03/20 03:02:44;;;;;;;3.45;2.17;;;17.30;45.80;;;;;;4928915;28;101127;-67
2022/03/20 03:05:11;;;;;;;3.47;2.00;;;17.30;45.80;;;;;;4928696;28;99893;-67
2022/03/20 03:13:11;;;;;;;4.53;2.50;;;17.30;46.90;;;;;;4929318;28;99217;-67
2022/03/20 03:15:36;;;;;;;3.47;2.40;;;17.30;45.80;;;;;;4929327;28;99043;-68
2022/03/20 03:18:04;;;;;;;3.05;2.40;;;17.30;45.80;;;;;;4930074;28;99070;-68
2022/03/20 03:20:31;;;;;;;4.13;2.60;;;17.30;45.80;;;;;;4929567;28;98623;-67
2022/03/20 03:22:56;;;;;;;3.72;2.75;;;17.20;45.70;;;;;;4928339;28;100621;-68
2022/03/20 03:25:25;;;;;;;3.33;2.40;;;17.20;45.70;;;;;;4928118;28;99458;-68
2022/03/20 03:27:52;;;;;;;4.35;2.80;;;17.20;45.70;;;;;;4928238;28;98556;-67
2022/03/20 03:30:17;;;;;;;3.38;2.60;;;17.20;45.70;;;;;;4929481;28;98551;-67
2022/03/20 03:32:45;;;;;;;3.95;2.75;;;17.20;45.70;;;;;;4928375;28;101483;-67
2022/03/20 03:37:57;;;;;;;4.50;2.85;;;17.20;45.70;;;;;;4928895;28;98546;-68
2022/03/20 03:40:23;;;;;;;4.13;2.67;;;17.20;45.70;;;;;;4931938;28;99020;-68
2022/03/20 03:42:48;;;;;;;4.32;2.47;;;17.20;45.70;;;;;;4930378;28;99244;-69
2022/03/20 03:45:14;;;;;;;4.32;2.85;;;17.20;45.60;;;;;;4928700;28;99028;-67
2022/03/20 03:47:43;;;;;;;3.10;2.80;;;17.20;45.60;;;;;;4928571;28;99158;-68
2022/03/20 03:50:11;;;;;;;5.25;3.00;;;17.20;45.60;;;;;;4928543;28;97847;-67
2022/03/20 03:52:37;;;;;;;4.55;2.88;;;17.20;45.60;;;;;;4928375;28;100051;-68
2022/03/20 03:55:04;;;;;;;3.90;3.20;;;17.20;45.70;;;;;;4928417;28;100006;-68
2022/03/20 03:57:30;;;;;;;4.32;2.92;;;17.20;45.60;;;;;;4928818;28;99773;-68
2022/03/20 03:59:56;;;;;;;4.20;3.22;;;17.20;45.60;;;;;;4928170;28;98687;-68
2022/03/20 04:02:22;;;;;;;6.47;3.20;;;17.20;45.60;;;;;;4928118;28;101063;-68
2022/03/20 04:04:48;;;;;;;4.28;2.90;;;17.20;45.60;;;;;;4928062;28;99548;-68
2022/03/20 04:07:18;;;;;;;4.55;3.20;;;17.10;45.50;;;;;;4929182;28;99001;-68
2022/03/20 04:09:44;;;;;;;5.63;3.45;;;17.10;45.50;;;;;;4928873;28;99041;-68
2022/03/20 04:12:13;;;;;;;4.57;3.03;;;17.10;45.50;;;;;;4928746;28;99430;-68
2022/03/20 04:14:40;;;;;;;5.35;3.58;;;17.10;45.50;;;;;;4927513;28;100026;-68
2022/03/20 04:17:06;;;;;;;3.95;3.30;;;17.10;45.40;;;;;;4927416;28;99791;-68
2022/03/20 04:19:32;;;;;;;4.68;3.50;;;17.10;45.40;;;;;;4928490;28;98688;-68
2022/03/20 04:21:59;;;;;;;5.72;3.90;;;17.10;45.40;;;;;;4926722;28;101015;-68
2022/03/20 04:24:24;;;;;;;4.68;3.53;;;17.10;45.50;;;;;;4927485;28;99535;-68
2022/03/20 04:26:52;;;;;;;4.75;3.42;;;17.10;45.40;;;;;;4928914;28;98556;-68
2022/03/20 04:29:20;;;;;;;4.32;3.35;;;17.10;45.40;;;;;;4928639;28;98620;-69
2022/03/20 04:31:47;;;;;;;5.55;3.60;;;17.10;45.40;;;;;;4928223;28;100645;-68
2022/03/20 04:34:12;;;;;;;5.10;3.78;;;17.10;45.40;;;;;;4927512;28;99888;-68
2022/03/20 04:36:38;;;;;;;3.88;3.47;;;17.10;45.40;;;;;;4927344;28;99018;-68
2022/03/20 04:39:04;;;;;;;4.75;3.30;;;17.10;45.30;;;;;;4929100;28;98361;-68
2022/03/20 04:41:30;;;;;;;5.65;3.85;;;17.10;45.30;;;;;;4927573;28;100422;-69
2022/03/20 04:43:56;;;;;;;4.97;3.70;;;17.10;45.40;;;;;;4928223;28;98921;-68
2022/03/20 04:46:21;;;;;;;6.20;3.95;;;17.00;45.30;;;;;;4927533;28;99748;-66
2022/03/20 04:59:45;;;;;;;4.80;3.55;;;17.00;45.30;;;;;;4928123;28;98716;-68
2022/03/20 05:02:11;;;;;;;5.85;3.83;;;17.00;45.30;;;;;;4930823;28;108290;-68
2022/03/20 05:04:37;;;;;;;4.88;4.00;;;17.00;45.20;;;;;;4930637;28;100120;-69
2022/03/20 05:07:04;;;;;;;5.78;4.22;;;17.00;45.20;;;;;;4930573;28;98806;-68
2022/03/20 05:15:08;;;;;;;4.97;3.93;;;17.00;45.20;;;;;;4930988;28;99187;-68
2022/03/20 06:21:06;;;;;;;5.85;4.80;;;17.70;43.60;;;;;;4945322;28;99170;-66
2022/03/20 06:23:33;;;;;;;5.18;4.45;;;17.80;43.30;;;;;;4948250;28;101493;-68
2022/03/20 06:25:58;;;;;;;5.43;4.30;;;18.00;43.10;;;;;;4949097;28;98775;-66
2022/03/20 06:28:24;;;;;;;6.00;4.30;;;18.10;42.90;;;;;;4948921;28;97908;-66
2022/03/20 06:30:50;;;;;;;5.63;4.50;;;18.20;42.70;;;;;;4948086;28;99066;-68
2022/03/20 06:33:16;;;;;;;6.32;4.18;;;18.20;42.60;;;;;;4948779;28;106356;-66
2022/03/20 06:35:41;;;;;;;5.85;4.53;;;18.30;42.40;;;;;;4948825;28;99419;-66
2022/03/20 06:38:07;;;;;;;7.35;4.30;;;18.40;42.20;;;;;;4949327;28;98717;-66
2022/03/20 06:40:33;;;;;;;5.65;4.50;;;18.40;42.00;;;;;;4948856;28;99648;-66
2022/03/20 06:42:58;;;;;;;6.80;4.82;;;18.50;42.10;;;;;;4948014;28;107903;-66
2022/03/20 06:45:24;;;;;;;5.88;4.75;;;18.50;41.90;;;;;;4948198;28;99131;-66
2022/03/20 06:47:50;;;;;;;6.30;4.18;;;18.50;41.90;;;;;;4948991;28;99007;-68
2022/03/20 06:50:16;;;;;;;5.40;4.15;;;18.50;41.80;;;;;;4948974;28;99928;-68
2022/03/20 06:52:42;;;;;;;5.13;4.43;;;18.50;43.00;;;;;;4949187;28;98793;-67
2022/03/20 06:55:14;;;;;;;5.32;4.32;;;18.50;41.90;;;;;;4948871;28;98533;-67
2022/03/20 06:57:41;;;;;;;6.63;4.90;;;18.50;41.90;;;;;;4949066;28;98496;-67
2022/03/20 07:00:08;;;;;;;5.45;4.50;;;18.60;41.80;;;;;;4949217;28;100837;-67
2022/03/20 07:02:34;;;;;;;7.05;4.63;;;18.60;41.70;;;;;;4948437;28;101320;-67
2022/03/20 07:05:00;;;;;;;5.40;4.40;;;18.60;41.70;;;;;;4948939;28;98677;-67
2022/03/20 07:07:26;;;;;;;6.50;4.97;;;18.60;41.80;;;;;;4949391;28;99147;-69
2022/03/20 07:09:52;;;;;;;5.53;4.55;;;18.70;41.60;;;;;;4949853;28;99960;-67
2022/03/20 07:12:19;;;;;;;5.40;4.53;;;18.70;41.60;;;;;;4948456;28;98795;-68
2022/03/20 07:14:45;;;;;;;6.20;4.68;;;18.70;41.60;;;;;;4949530;28;98965;-67
2022/03/20 07:17:16;;;;;;;6.85;4.82;;;18.80;41.50;;;;;;4949725;28;99746;-67
2022/03/20 07:19:43;;;;;;;6.20;4.70;;;18.80;41.40;;;;;;4967614;28;101920;-67
2022/03/20 07:22:10;;;;;;;7.57;4.93;;;18.80;41.40;;;;;;4967656;28;100197;-67
2022/03/20 07:24:39;;;;;;;5.43;4.32;;;18.90;41.40;;;;;;4966770;28;99761;-68
2022/03/20 07:29:50;;;;;;;6.93;5.22;;;18.90;41.40;;;;;;4968501;28;98663;-67
2022/03/20 08:59:21;;;;;;;7.32;6.13;;;17.90;42.80;;;;;;5081473;22;100905;-68
2022/03/20 09:01:47;;;;;;;7.90;6.22;;;17.90;42.90;;;;;;4967601;28;98943;-68
2022/03/20 09:04:12;;;;;;;7.07;6.07;;;17.90;42.90;;;;;;4966921;28;98424;-68
2022/03/20 09:06:43;;;;;;;7.95;6.20;;;17.90;42.80;;;;;;4966053;28;111876;-68
2022/03/20 09:09:09;;;;;;;7.60;6.18;;;17.90;42.90;;;;;;4966192;28;100150;-67
2022/03/20 09:11:35;;;;;;;9.45;6.65;;;17.90;43.00;;;;;;4966731;28;99934;-68
2022/03/20 09:14:00;;;;;;;8.10;6.47;;;17.90;43.10;;;;;;4966909;28;98927;-68
2022/03/20 09:19:11;;;;;;;8.05;6.53;;;17.90;43.20;;;;;;4965764;28;98602;-69
2022/03/20 09:21:38;;;;;;;7.55;6.57;;;17.90;43.30;;;;;;4967600;28;98524;-69
2022/03/20 09:24:05;;;;;;;7.65;6.68;;;17.90;43.30;;;;;;4967163;28;99137;-68
2022/03/20 09:26:31;;;;;;;9.65;6.78;;;17.80;43.30;;;;;;4966019;28;102013;-68
2022/03/20 09:28:57;;;;;;;8.68;6.63;;;17.90;43.50;;;;;;4966479;28;98653;-68
2022/03/20 09:31:23;;;;;;;7.55;6.75;;;17.80;43.60;;;;;;4967090;28;98923;-68
2022/03/20 09:33:49;;;;;;;7.85;6.57;;;17.80;43.50;;;;;;4966885;28;99401;-68
2022/03/20 09:36:15;;;;;;;8.35;6.93;;;17.80;43.60;;;;;;4966222;28;101759;-68
2022/03/20 09:38:41;;;;;;;9.85;7.00;;;17.90;43.50;;;;;;4966458;28;100569;-68
2022/03/20 09:41:08;;;;;;;7.47;6.55;;;17.90;43.50;;;;;;4965916;28;99261;-69
2022/03/20 09:43:36;;;;;;;9.30;7.38;;;17.90;43.50;;;;;;4965624;28;98655;-68
2022/03/20 09:46:02;;;;;;;8.48;6.63;;;17.90;43.40;;;;;;4966147;28;100448;-68
2022/03/20 09:48:32;;;;;;;7.75;6.80;;;17.90;43.30;;;;;;4969565;28;98916;-68
2022/03/20 09:51:00;;;;;;;9.35;6.85;;;17.90;43.30;;;;;;4970703;28;98896;-68
2022/03/20 09:53:26;;;;;;;8.98;7.13;;;17.90;43.30;;;;;;4969704;28;98440;-68
2022/03/20 09:55:55;;;;;;;8.63;7.38;;;17.90;43.30;;;;;;4968789;28;100120;-68
2022/03/20 09:58:27;;;;;;;9.45;7.15;;;17.90;43.40;;;;;;4968493;28;100171;-68
2022/03/20 10:00:54;;;;;;;7.73;6.87;;;17.90;43.30;;;;;;4968077;28;99702;-68
2022/03/20 10:03:22;;;;;;;8.00;6.80;;;17.90;43.30;;;;;;4969847;28;99379;-68
2022/03/20 10:06:16;;;;;;;8.48;7.32;;;17.90;43.30;;;;;;4969102;28;99741;-68
2022/03/20 10:09:12;;;;;;;9.07;7.43;;;17.90;43.20;;;;;;4969218;28;102629;-68
2022/03/20 10:11:51;;;;;;;9.32;7.20;;;17.90;43.30;;;;;;4952876;28;98736;-68
2022/03/20 10:14:24;;;;;;;8.68;7.47;;;18.00;43.30;;;;;;4968496;28;98754;-68
2022/03/20 10:16:54;;;;;;;8.13;7.00;;;17.90;43.20;;;;;;4969139;28;99209;-68
2022/03/20 10:19:23;;;;;;;9.48;7.45;;;18.00;43.30;;;;;;4968349;28;99868;-68
2022/03/20 10:22:00;;;;;;;10.38;7.05;;;18.00;43.30;;;;;;4969271;28;98641;-68
2022/03/20 10:24:27;;;;;;;8.27;6.70;;;18.00;44.30;;;;;;4968150;28;98696;-68
2022/03/20 10:27:00;;;;;;;9.20;7.53;;;18.00;43.20;;;;;;4967884;28;101172;-69
2022/03/20 10:29:28;;;;;;;8.50;7.03;;;18.00;43.30;;;;;;4967873;28;100913;-68
2022/03/20 10:31:56;;;;;;;8.10;6.72;;;18.00;43.30;;;;;;4968219;28;98836;-68
2022/03/20 10:34:26;;;;;;;10.32;7.72;;;17.90;43.40;;;;;;4969190;28;98483;-68
2022/03/20 10:36:52;;;;;;;9.98;6.93;;;17.90;43.50;;;;;;4968413;28;100323;-69
2022/03/20 10:39:21;;;;;;;9.95;7.68;;;17.90;43.50;;;;;;4968895;28;100487;-68
2022/03/20 10:41:48;;;;;;;9.23;7.40;;;17.90;43.50;;;;;;4969216;28;99481;-68
2022/03/20 10:44:22;;;;;;;8.40;7.03;;;17.90;43.50;;;;;;4969556;28;98211;-68
2022/03/20 10:47:16;;;;;;;9.00;6.97;;;18.00;44.70;;;;;;4967555;28;99043;-68
2022/03/20 10:50:06;;;;;;;9.38;7.68;;;18.00;43.60;;;;;;4969458;28;100103;-68
2022/03/20 10:52:32;;;;;;;8.45;7.20;;;18.00;43.60;;;;;;4968517;28;100065;-68
2022/03/20 10:54:58;;;;;;;8.32;6.82;;;17.90;43.60;;;;;;4968880;28;98676;-69
2022/03/20 10:57:34;;;;;;;8.63;7.30;;;18.00;43.60;;;;;;4966920;28;100673;-69
2022/03/20 11:00:14;;;;;;;9.02;7.78;;;18.00;43.60;;;;;;4968614;28;100498;-69
2022/03/20 11:02:40;;;;;;;9.25;7.22;;;18.00;43.60;;;;;;4968361;28;98929;-68
2022/03/20 11:05:08;;;;;;;8.38;7.45;;;18.00;43.60;;;;;;4969439;28;98587;-68
2022/03/20 11:07:35;;;;;;;8.93;7.63;;;18.00;43.60;;;;;;4967454;28;100789;-68
2022/03/20 11:10:00;;;;;;;9.02;7.30;;;18.00;43.70;;;;;;4968392;28;99873;-69
2022/03/20 11:12:27;;;;;;;9.20;7.57;;;18.00;43.70;;;;;;4968438;28;99160;-68
2022/03/20 11:14:59;;;;;;;9.40;7.25;;;18.00;43.80;;;;;;4967931;28;99276;-68
2022/03/20 11:17:42;;;;;;;7.57;6.78;;;18.10;43.80;;;;;;4967342;28;103306;-68
2022/03/20 11:20:10;;;;;;;8.35;6.70;;;18.20;43.80;;;;;;4967427;28;100657;-68
2022/03/20 11:22:41;;;;;;;8.60;6.90;;;18.30;43.60;;;;;;4966796;28;99112;-68
2022/03/20 11:25:08;;;;;;;9.00;6.90;;;18.40;43.50;;;;;;4968113;28;98609;-68
2022/03/20 11:27:40;;;;;;;8.88;7.03;;;18.40;43.40;;;;;;4967431;28;100113;-68
2022/03/20 11:30:07;;;;;;;9.20;6.73;;;18.60;43.20;;;;;;4968612;28;99342;-68
2022/03/20 11:32:34;;;;;;;8.27;6.70;;;18.70;43.10;;;;;;4971845;28;98681;-67
2022/03/20 11:35:05;;;;;;;7.68;6.60;;;18.80;42.90;;;;;;4976049;28;97883;-68
2022/03/20 11:37:54;;;;;;;8.00;6.60;;;18.80;42.80;;;;;;4980755;28;100146;-68
2022/03/20 11:40:22;;;;;;;7.70;6.90;;;18.90;42.70;;;;;;4971768;28;100240;-68
2022/03/20 11:43:11;;;;;;;8.05;6.45;;;19.00;42.50;;;;;;4968242;28;99234;-68
2022/03/20 11:45:37;;;;;;;7.47;6.68;;;19.10;42.50;;;;;;4967326;28;99043;-68
2022/03/20 11:48:16;;;;;;;8.45;6.57;;;19.10;42.40;;;;;;4967710;28;99335;-68
2022/03/20 11:50:47;;;;;;;6.78;6.07;;;19.20;42.40;;;;;;4968436;28;98812;-68
2022/03/20 11:53:25;;;;;;;7.18;6.28;;;19.20;42.40;;;;;;4967539;28;98749;-69
2022/03/20 11:55:53;;;;;;;8.57;6.60;;;19.20;42.40;;;;;;4967737;28;98843;-69
2022/03/20 11:58:24;;;;;;;8.18;6.72;;;19.20;42.40;;;;;;4966987;28;99146;-68
2022/03/20 12:01:07;;;;;;;7.45;6.20;;;19.20;42.50;;;;;;4967387;28;100644;-69
2022/03/20 12:03:44;;;;;;;9.05;6.68;;;19.20;42.50;;;;;;4967146;28;99154;-68
2022/03/20 12:06:26;;;;;;;8.90;6.72;;;19.20;42.50;;;;;;4967085;28;99055;-68
2022/03/20 12:09:19;;;;;;;7.70;6.47;;;19.20;42.40;;;;;;4966499;28;101731;-68
2022/03/20 12:12:25;;;;;;;7.10;6.40;;;19.20;42.40;;;;;;4965426;28;100514;-68
2022/03/20 12:14:56;;;;;;;7.40;6.60;;;19.30;42.40;;;;;;4966349;28;98590;-69
2022/03/20 12:17:22;;;;;;;7.32;6.47;;;19.30;42.30;;;;;;4967283;28;98804;-68
2022/03/20 12:19:55;;;;;;;8.82;6.72;;;19.30;42.30;;;;;;4966157;28;99097;-68
2022/03/20 12:22:21;;;;;;;7.57;6.57;;;19.40;42.30;;;;;;4965799;28;100147;-69
2022/03/20 12:24:54;;;;;;;7.97;6.90;;;19.40;42.30;;;;;;4967103;28;98966;-69
2022/03/20 12:27:20;;;;;;;8.13;6.80;;;19.40;42.10;;;;;;4966850;28;98457;-69
2022/03/20 12:30:02;;;;;;;7.38;6.38;;;19.40;42.10;;;;;;4966745;28;100544;-68
2022/03/20 12:32:47;;;;;;;9.32;7.22;;;19.40;42.10;;;;;;4966895;28;99802;-69
2022/03/20 12:35:24;;;;;;;7.55;6.75;;;19.40;42.10;;;;;;4966064;28;99830;-68
2022/03/20 12:37:52;;;;;;;9.07;7.40;;;19.40;42.10;;;;;;4966629;28;98970;-68
2022/03/20 12:40:25;;;;;;;8.77;7.30;;;19.40;42.10;;;;;;4965809;28;100358;-69
2022/03/20 12:43:08;;;;;;;9.32;7.13;;;19.40;42.20;;;;;;4966219;28;99265;-69
2022/03/20 12:45:45;;;;;;;8.18;7.25;;;19.30;42.30;;;;;;4965627;28;98698;-69
2022/03/20 12:48:16;;;;;;;8.23;7.32;;;19.30;42.30;;;;;;4966775;28;99926;-68
2022/03/20 12:50:45;;;;;;;8.20;7.10;;;19.20;42.40;;;;;;4966133;28;99016;-68
2022/03/20 12:53:16;;;;;;;9.35;7.70;;;19.20;42.50;;;;;;4967216;28;99793;-69
2022/03/20 12:55:47;;;;;;;8.48;7.40;;;19.20;42.60;;;;;;4966783;28;98982;-69
2022/03/20 12:58:15;;;;;;;9.77;8.02;;;19.10;42.70;;;;;;4966166;28;99242;-69
2022/03/20 13:00:43;;;;;;;9.20;7.53;;;19.10;42.70;;;;;;4965691;28;101510;-68
2022/03/20 13:03:09;;;;;;;8.95;7.63;;;19.00;42.60;;;;;;4966273;28;100628;-69
2022/03/20 13:05:49;;;;;;;9.27;7.45;;;19.00;42.70;;;;;;4966521;28;98787;-68
2022/03/20 13:08:21;;;;;;;9.48;7.75;;;19.00;42.80;;;;;;4966631;28;99037;-69
2022/03/20 13:10:47;;;;;;;9.13;7.80;;;18.90;42.80;;;;;;4965248;28;100645;-69
2022/03/20 13:13:16;;;;;;;9.02;7.80;;;18.90;42.90;;;;;;4966242;28;99056;-68
2022/03/20 13:15:42;;;;;;;8.18;7.38;;;18.80;43.00;;;;;;4966091;28;98733;-69
2022/03/20 13:18:10;;;;;;;8.98;7.78;;;18.80;42.90;;;;;;4968610;28;97829;-69
2022/03/20 13:20:46;;;;;;;8.75;7.85;;;18.70;42.90;;;;;;4968682;28;100278;-69
2022/03/20 13:23:23;;;;;;;9.15;8.15;;;18.70;42.90;;;;;;4973079;28;98849;-68
2022/03/20 13:25:56;;;;;;;10.07;8.35;;;18.70;43.10;;;;;;4975326;28;99430;-69
2022/03/20 13:28:26;;;;;;;10.63;8.45;;;18.60;43.10;;;;;;4974599;28;98557;-68
2022/03/20 13:30:54;;;;;;;9.90;8.90;;;18.60;43.10;;;;;;4975114;28;100127;-65
2022/03/20 13:33:33;;;;;;;11.63;8.85;;;18.60;43.10;;;;;;4969691;28;100741;-66
2022/03/20 13:36:07;;;;;;;9.93;8.73;;;18.50;43.10;;;;;;4970588;28;99056;-65
2022/03/20 13:38:43;;;;;;;10.05;8.98;;;18.50;43.10;;;;;;4969878;28;99709;-68
2022/03/20 13:41:20;;;;;;;10.75;9.10;;;18.50;44.20;;;;;;4968144;28;100875;-68
2022/03/20 13:43:47;;;;;;;11.88;8.77;;;18.50;43.20;;;;;;4968237;28;100286;-68
2022/03/20 13:46:14;;;;;;;10.63;9.18;;;18.40;43.30;;;;;;4969233;28;98635;-68
2022/03/20 13:48:41;;;;;;;11.77;9.05;;;18.40;43.30;;;;;;4969066;28;98656;-68
2022/03/20 13:51:06;;;;;;;10.23;8.80;;;18.40;43.30;;;;;;4967517;28;100935;-68
2022/03/20 13:53:32;;;;;;;10.88;9.43;;;18.40;43.30;;;;;;4968714;28;100700;-68
2022/03/20 13:55:59;;;;;;;10.95;9.57;;;18.30;43.20;;;;;;4969168;28;99073;-69
2022/03/20 13:58:25;;;;;;;12.95;10.25;;;18.30;43.20;;;;;;4968177;28;98625;-69
2022/03/20 14:01:01;;;;;;;11.00;9.57;;;18.30;43.40;;;;;;4968655;28;99104;-68
2022/03/20 14:03:30;;;;;;;10.38;9.27;;;18.30;43.40;;;;;;4969163;28;99848;-69
2022/03/20 14:05:57;;;;;;;10.88;9.75;;;18.30;43.60;;;;;;4968655;28;98721;-69
2022/03/20 14:08:23;;;;;;;11.30;9.88;;;18.20;43.50;;;;;;4970095;28;97770;-69
2022/03/20 14:10:53;;;;;;;11.20;10.05;;;18.20;43.50;;;;;;4968426;28;100889;-69
2022/03/20 14:13:34;;;;;;;11.95;10.52;;;18.20;43.50;;;;;;4967989;28;100210;-67
2022/03/20 14:16:07;;;;;;;12.02;10.20;;;18.20;43.50;;;;;;4967264;28;99319;-68
2022/03/20 14:18:34;;;;;;;;;;;18.10;43.50;;;;;;4968662;28;99109;-68
2022/03/20 14:21:09;;;;;;;12.52;11.23;;;18.10;43.70;;;;;;4969168;28;99123;-68
2022/03/20 14:23:36;;;;;;;12.35;11.05;;;18.10;43.60;;;;;;4967452;28;100144;-69
2022/03/20 14:26:16;;;;;;;13.30;11.88;;;18.00;43.70;;;;;;4968423;28;98649;-69
2022/03/20 14:28:42;;;;;;;12.80;11.20;;;18.00;43.80;;;;;;4968057;28;100019;-68
2022/03/20 14:39:48;;;;;;;14.48;12.93;;;17.90;44.10;;;;;;4962142;28;98752;-68
2022/03/20 14:42:28;;;;;;;13.82;12.23;;;17.90;44.20;;;;;;4966867;28;101104;-69
2022/03/20 14:44:55;;;;;;;13.45;11.90;;;17.90;44.20;;;;;;4966735;28;100816;-69
2022/03/20 14:47:21;;;;;;;13.27;11.90;;;17.90;44.30;;;;;;4967709;28;98905;-68
2022/03/20 14:49:50;;;;;;;13.15;11.50;;;17.80;44.30;;;;;;4967385;28;98720;-68
2022/03/20 14:52:17;;;;;;;15.90;12.88;;;17.80;44.30;;;;;;4967184;28;100130;-68
2022/03/20 14:54:43;;;;;;;15.25;12.20;;;17.80;44.30;;;;;;4968092;28;100222;-68
2022/03/20 14:57:09;;;;;;;14.00;12.50;;;17.80;44.40;;;;;;4968017;28;98705;-68
2022/03/20 14:59:35;;;;;;;14.43;12.45;;;17.80;44.40;;;;;;4967435;28;97940;-69
2022/03/20 15:02:00;;;;;;;14.57;12.43;;;17.80;44.50;;;;;;4968342;28;100292;-68
2022/03/20 15:04:33;;;;;;;15.13;13.18;;;17.80;44.50;;;;;;4969958;28;99349;-68
2022/03/20 15:06:59;;;;;;;14.52;12.40;;;17.70;44.50;;;;;;4956380;28;99909;-68
2022/03/20 15:12:09;;;;;;;15.65;13.13;;;17.70;44.70;;;;;;4968084;28;99012;-68
2022/03/20 15:14:35;;;;;;;15.60;13.90;;;17.70;44.70;;;;;;4967044;28;99080;-68
2022/03/20 15:17:01;;;;;;;15.88;13.88;;;17.70;44.80;;;;;;4967760;28;98595;-69
2022/03/20 15:19:27;;;;;;;17.17;13.77;;;17.70;44.70;;;;;;4967783;28;99140;-68
2022/03/20 15:21:52;;;;;;;15.70;12.77;;;17.60;44.70;;;;;;4967244;28;100590;-68
2022/03/20 15:24:18;;;;;;;16.48;13.48;;;17.60;44.70;;;;;;4967993;28;98811;-69
2022/03/20 15:26:44;;;;;;;16.10;14.38;;;17.60;44.80;;;;;;4968059;28;98853;-68
2022/03/20 15:29:11;;;;;;;15.65;14.05;;;17.60;44.80;;;;;;4967205;28;98622;-68
2022/03/20 15:31:38;;;;;;;17.10;14.80;;;17.60;44.80;;;;;;4966029;28;100927;-69
2022/03/20 15:34:07;;;;;;;15.38;13.70;;;17.60;44.90;;;;;;4966296;28;100739;-68
2022/03/20 15:36:35;;;;;;;16.60;14.80;;;17.60;45.00;;;;;;4966548;28;100017;-68
2022/03/20 15:39:09;;;;;;;18.33;14.80;;;17.60;44.90;;;;;;4966694;28;99017;-69
2022/03/20 15:41:37;;;;;;;16.05;13.60;;;17.60;45.00;;;;;;4965177;28;101126;-68
2022/03/20 15:44:03;;;;;;;16.13;14.38;;;17.50;44.90;;;;;;4948417;28;99342;-69
2022/03/20 15:46:28;;;;;;;17.08;14.82;;;17.50;45.00;;;;;;4965803;28;99023;-68
2022/03/20 15:48:56;;;;;;;16.15;14.23;;;17.50;45.10;;;;;;4967305;28;98379;-68
2022/03/20 15:51:22;;;;;;;16.10;14.35;;;17.50;45.10;;;;;;4966436;28;100802;-68
2022/03/20 15:53:48;;;;;;;16.90;14.57;;;17.50;45.10;;;;;;4966077;28;100521;-69
2022/03/20 15:56:13;;;;;;;16.73;14.57;;;17.50;45.10;;;;;;4966614;28;99351;-68
2022/03/20 15:58:39;;;;;;;17.33;15.05;;;17.50;45.20;;;;;;4967342;28;99134;-68
2022/03/20 16:01:08;;;;;;;17.58;15.75;;;17.50;45.30;;;;;;4965725;28;100419;-68